KPPQ

Pittsfield Penstone Municipal Airport

Pittsfield, Illinois, USA
METAR KPPQ 220515Z AUTO 33004KT 10SM BKN029 OVC036 20/19 A2971 RMK AO2 T01950186 PWINO
Observed Flight Rules
Jun-22 @ 05:15 UTC (29 minutes ago) Marginal Visual Flight Rules
Wind Visibility Clouds
330° at 4 knots 10 miles
  • Broken at 2,900' AGL
  • Overcast at 3,600' AGL
Temperatures Readings
Current 20°C / 68°F
Dewpoint 19°C / 66°F
Humidity 94%
Altimeter 29.71" Hg
Pressure 1006 hPa
Elevation 216
METAR KPPQ 220515Z AUTO 33004KT 10SM BKN029 OVC036 20/19 A2971 RMK AO2 T01950186 PWINO
Observed Flight Rules
Jun-22 @ 05:15 UTC
(29 minutes ago)
MVFR
Wind Visibility
330° at 4 knots 10 miles
Clouds
  • Broken at 2,900' AGL
  • Overcast at 3,600' AGL
Temperature Dewpoint
20°C / 68°F 19°C / 66°F
Humidity Altimeter Pressure
94% 29.71" Hg 1006 hPa